Flight Track Log - Related Links

Times and Time Zones

All times are in EDT time to prevent confusion due to time zone crossing. See the AAL963 flight status page for this flight to view local times or setup timezone preferences in your user account.

Time Position Orientation Groundspeed Altitude Reporting Facility
EDT Latitude Longitude Course Direction KTS MPH feet Rate Location/Type
Sat 09:33:05 PM 32.8530 -97.0240 163° South 178 205 2,300  Level FlightAware ADS-B
Sat 09:33:33 PM 32.8300 -97.0160 164° South 193 222 2,800 982 Climbing FlightAware ADS-B
Sat 09:34:00 PM 32.8050 -97.0080 165° South 216 249 3,200 1,071 Climbing FlightAware ADS-B
Sat 09:34:29 PM 32.7760 -96.9990 165° South 236 272 3,800 1,500 Climbing FlightAware ADS-B
Sat 09:34:56 PM 32.7460 -96.9880 163° South 248 285 4,600 1,500 Climbing FlightAware ADS-B
Sat 09:35:25 PM 32.7200 -96.9680 147° Southeast 265 305 5,200 1,500 Climbing FlightAware ADS-B
Sat 09:35:36 PM 32.7120 -96.9500 118° Southeast 273 314 5,600 1,826 Climbing FlightAware ADS-B
Sat 09:35:48 PM 32.7100 -96.9330 98° East 276 318 5,900 2,143 Climbing FlightAware ADS-B
Sat 09:36:18 PM 32.7150 -96.8870 83° East 279 321 7,100 2,222 Climbing FlightAware ADS-B
Sat 09:36:42 PM 32.7200 -96.8500 81° East 284 327 7,900 1,941 Climbing FlightAware ADS-B
Sat 09:36:52 PM 32.7220 -96.8350 81° East 288 331 8,200 2,000 Climbing FlightAware ADS-B
Sat 09:37:21 PM 32.7260 -96.7900 84° East 292 336 9,200 2,000 Climbing FlightAware ADS-B
Sat 09:37:37 PM 32.7280 -96.7640 85° East 296 341 9,700 1,789 Climbing FlightAware ADS-B
Sat 09:38:18 PM 32.7330 -96.6960 85° East 312 359 10,900 1,663 Climbing FlightAware ADS-B
Sat 09:39:00 PM 32.7380 -96.6220 85° East 326 375 12,000 1,482 Climbing FlightAware ADS-B
Sat 09:39:43 PM 32.7470 -96.5440 82° East 347 399 13,000 1,517 Climbing FlightAware ADS-B
Sat 09:40:27 PM 32.7570 -96.4590 82° East 359 413 14,200 1,663 Climbing FlightAware ADS-B
Sat 09:41:06 PM 32.7660 -96.3820 82° East 365 420 15,300 1,841 Climbing FlightAware ADS-B
Sat 09:41:55 PM 32.7650 -96.2820 91° East 374 430 16,900 1,814 Climbing FlightAware ADS-B
Sat 09:42:32 PM 32.7635 -96.2043 91° East 385 443 17,900 1,500 Climbing FlightAware ADS-B
Sat 09:43:15 PM 32.7600 -96.1130 93° East 396 456 18,900 1,448 Climbing FlightAware ADS-B
Sat 09:43:59 PM 32.7570 -96.0170 92° East 403 464 20,000 1,483 Climbing FlightAware ADS-B
Sat 09:44:44 PM 32.7540 -95.9180 92° East 409 471 21,100 1,500 Climbing FlightAware ADS-B
Sat 09:45:39 PM 32.7500 -95.7930 92° East 415 478 22,500 1,389 Climbing FlightAware ADS-B
Sat 09:46:19 PM 32.7470 -95.7020 92° East 423 487 23,300 769 Climbing FlightAware ADS-B
Sat 09:46:57 PM 32.7450 -95.6250 92° East 424 488 23,500 1,085 Climbing FlightAware ADS-B
Sat 09:47:53 PM 32.7400 -95.4910 93° East 423 487 25,000 978 Climbing FlightAware ADS-B
Sat 09:48:29 PM 32.7380 -95.4200 92° East 423 487 25,000 1,595 Level FlightAware ADS-B
Sat 09:49:12 PM 32.7330 -95.2980 93° East 433 498 27,100 2,509 Climbing FlightAware ADS-B
Sat 09:49:24 PM 32.7318 -95.2668 93° East 435 501 27,300 1,149 Climbing FlightAware ADS-B
Sat 09:49:59 PM 32.7286 -95.1836 93° East 433 498 28,000 1,091 Climbing FlightAware ADS-B
Sat 09:50:30 PM 32.7259 -95.1100 92° East 435 501 28,500 985 Climbing FlightAware ADS-B
Sat 09:51:06 PM 32.7225 -95.0234 93° East 437 503 29,100 880 Climbing FlightAware ADS-B
Sat 09:51:45 PM 32.7187 -94.9300 93° East 440 506 29,600 789 Climbing FlightAware ADS-B
Sat 09:52:22 PM 32.7151 -94.8406 93° East 442 509 30,100 894 Climbing FlightAware ADS-B
Sat 09:52:32 PM 32.7128 -94.8178 97° East 445 512 30,300 955 Climbing FlightAware ADS-B
Sat 09:53:06 PM 32.6935 -94.7356 106° East 450 518 30,800 675 Climbing FlightAware ADS-B
Sat 09:55:21 PM 32.5611 -94.4412 118° Southeast 472 543 32,200 578 Climbing FlightAware ADS-B
Sat 09:55:52 PM 32.5166 -94.3784 130° Southeast 477 549 32,400 477 Climbing FlightAware ADS-B
Sat 09:56:49 PM 32.4335 -94.2645 131° Southeast 480 552 32,900 232 Climbing FlightAware ADS-B
Sat 09:58:27 PM 32.2862 -94.0658 131° Southeast 500 575 33,000 47 Climbing FlightAware ADS-B
Sat 09:58:57 PM 32.2398 -94.0036 131° Southeast 500 575 33,000  Level FlightAware ADS-B
Sat 10:00:13 PM 32.1248 -93.8494 131° Southeast 501 577 33,000  Level FlightAware ADS-B
Sat 10:00:43 PM 32.0781 -93.7869 131° Southeast 503 579 33,000  Level FlightAware ADS-B
Sat 10:05:36 PM 31.6255 -93.1867 131° Southeast 509 586 33,000  Level FlightAware ADS-B
Sat 10:06:49 PM 31.5100 -93.0354 132° Southeast 510 587 33,000  Level FlightAware ADS-B
Sat 10:07:20 PM 31.4620 -92.9729 132° Southeast 509 586 33,000  Level FlightAware ADS-B
Sat 10:07:50 PM 31.4147 -92.9113 132° Southeast 508 585 33,000  Level FlightAware ADS-B
Sat 10:08:21 PM 31.3648 -92.8464 132° Southeast 509 586 33,000  Level FlightAware ADS-B
Sat 10:09:08 PM 31.3031 -92.7650 132° Southeast 508 585 33,000  Level Houston Center
Sat 10:10:09 PM 31.2067 -92.6431 133° Southeast 509 586 33,000  Level Houston Center
Sat 10:15:49 PM 30.6500 -91.9296 133° Southeast 513 590 33,000  Level FlightAware ADS-B
Sat 10:16:19 PM 30.6017 -91.8683 132° Southeast 513 590 33,000  Level FlightAware ADS-B
Sat 10:16:52 PM 30.5493 -91.8020 133° Southeast 514 592 33,000  Level FlightAware ADS-B
Sat 10:17:28 PM 30.4913 -91.7289 133° Southeast 512 589 33,000 91 Level FlightAware ADS-B
Sat 10:17:58 PM 30.4428 -91.6678 133° Southeast 511 588 33,100 411 Climbing FlightAware ADS-B
Sat 10:18:41 PM 30.3751 -91.5827 133° Southeast 505 581 33,500 541 Climbing FlightAware ADS-B
Sat 10:19:49 PM 30.2670 -91.4471 133° Southeast 502 578 34,100 667 Climbing FlightAware ADS-B
Sat 10:20:56 PM 30.1519 -91.3262 138° Southeast 498 573 35,000 587 Climbing FlightAware ADS-B
Sat 10:21:21 PM 30.1047 -91.2921 148° Southeast 496 571 35,000  Level FlightAware ADS-B
Sat 10:22:07 PM 30.0108 -91.2363 153° Southeast 495 570 35,000  Level FlightAware ADS-B
Sat 10:22:45 PM 29.9330 -91.1920 154° Southeast 493 567 35,000  Level FlightAware ADS-B
Sat 10:23:35 PM 29.8303 -91.1326 153° Southeast 493 567 35,000  Level FlightAware ADS-B
Sat 10:24:06 PM 29.7686 -91.0966 153° Southeast 490 564 35,000  Level FlightAware ADS-B
Sat 10:24:36 PM 29.7079 -91.0612 153° Southeast 490 564 35,000  Level FlightAware ADS-B
Sat 10:25:07 PM 29.6436 -91.0237 153° Southeast 491 565 35,000  Level FlightAware ADS-B
Sat 10:25:38 PM 29.5819 -90.9879 153° Southeast 489 563 35,000  Level FlightAware ADS-B
Sat 10:26:22 PM 29.4930 -90.9364 153° Southeast 486 559 35,000  Level FlightAware ADS-B
Sat 10:26:53 PM 29.4314 -90.9007 153° Southeast 485 558 35,000  Level FlightAware ADS-B
Sat 10:27:23 PM 29.3700 -90.8652 153° Southeast 486 559 35,000  Level FlightAware ADS-B
Sat 10:32:48 PM 28.7200 -90.4930 153° Southeast 491 565 35,000  Level FlightAware ADS-B
Sat 10:33:23 PM 28.6400 -90.4490 154° Southeast 489 563 35,000  Level FlightAware ADS-B
Sat 10:34:00 PM 28.5780 -90.4130 153° Southeast 489 563 35,000  Level FlightAware ADS-B
Sat 10:34:48 PM 28.4790 -90.3570 154° Southeast 489 563 35,000  Level FlightAware ADS-B
Sat 10:35:24 PM 28.4180 -90.3210 153° Southeast 489 563 35,000  Level FlightAware ADS-B
Sat 10:36:11 PM 28.2990 -90.2570 155° Southeast 490 564 35,000  Level FlightAware ADS-B
Sat 10:36:55 PM 28.2100 -90.2070 154° Southeast 490 564 35,000  Level FlightAware ADS-B
Sat 10:37:52 PM 28.1060 -90.1470 153° Southeast 490 564 35,000  Level FlightAware ADS-B
Sat 10:38:28 PM 28.0450 -90.1120 153° Southeast 490 564 35,000  Level FlightAware ADS-B
Sat 10:39:04 PM 27.9830 -90.0760 153° Southeast 490 564 35,000  Level FlightAware ADS-B
Sat 10:40:04 PM 27.8800 -90.0170 153° Southeast 490 564 35,000  Level FlightAware ADS-B
Sat 10:40:40 PM 27.8180 -89.9810 153° Southeast 490 564 35,000  Level FlightAware ADS-B
Sat 10:41:27 PM 27.6580 -89.9000 156° South 491 565 35,000  Level FlightAware ADS-B
Sat 10:42:08 PM 27.5850 -89.8580 153° Southeast 491 565 35,000  Level FlightAware ADS-B
Sat 10:42:44 PM 27.5240 -89.8220 152° Southeast 491 565 35,000  Level FlightAware ADS-B
Sat 10:43:34 PM 27.4370 -89.7730 153° Southeast 491 565 35,000  Level FlightAware ADS-B
Sat 10:44:21 PM 27.3020 -89.7030 155° Southeast 493 567 35,000  Level FlightAware ADS-B
Sat 10:45:02 PM 27.2320 -89.6640 154° Southeast 493 567 35,000  Level FlightAware ADS-B
Sat 10:45:38 PM 27.1700 -89.6280 153° Southeast 493 567 35,000  Level FlightAware ADS-B
Sat 10:46:14 PM 27.1080 -89.5930 153° Southeast 493 567 35,000  Level FlightAware ADS-B
Sat 10:47:03 PM 27.0230 -89.5440 153° Southeast 493 567 35,000  Level FlightAware ADS-B
Sat 10:47:39 PM 26.9610 -89.5090 153° Southeast 493 567 35,000  Level FlightAware ADS-B
Sat 10:48:27 PM 26.8780 -89.4610 153° Southeast 493 567 35,000  Level FlightAware ADS-B
Sat 10:49:03 PM 26.8160 -89.4260 153° Southeast 493 567 35,000  Level FlightAware ADS-B
Sat 10:49:51 PM 26.7330 -89.3790 153° Southeast 493 567 35,000  Level FlightAware ADS-B
Sat 10:50:27 PM 26.6710 -89.3430 153° Southeast 493 567 35,000  Level FlightAware ADS-B
Sat 10:51:04 PM 26.6070 -89.3070 153° Southeast 493 567 35,000  Level FlightAware ADS-B
Sat 10:51:52 PM 26.5240 -89.2590 153° Southeast 493 567 35,000  Level FlightAware ADS-B
Sat 10:52:28 PM 26.4620 -89.2240 153° Southeast 493 567 35,000  Level FlightAware ADS-B
Sat 10:53:04 PM 26.4000 -89.1890 153° Southeast 493 567 35,000  Level FlightAware ADS-B
Sat 10:53:52 PM 26.3170 -89.1420 153° Southeast 493 567 35,000  Level FlightAware ADS-B
Sat 10:54:28 PM 26.2550 -89.1060 152° Southeast 493 567 35,000  Level FlightAware ADS-B
Sat 10:59:00 PM 25.7080 -88.8205 155° Southeast  Level FlightAware Approximate
Sat 11:00:00 PM 25.5873 -88.7578 155° Southeast  Level FlightAware Approximate
Sat 11:01:00 PM 25.4665 -88.6953 155° Southeast  Level FlightAware Approximate
Sat 11:02:00 PM 25.3457 -88.6329 155° Southeast  Level FlightAware Approximate
Sat 11:03:00 PM 25.2249 -88.5707 155° Southeast  Level FlightAware Approximate
Sat 11:04:00 PM 25.1041 -88.5086 155° Southeast  Level FlightAware Approximate
Sat 11:05:00 PM 24.9832 -88.4466 155° Southeast  Level FlightAware Approximate
Sat 11:06:00 PM 24.8623 -88.3847 155° Southeast  Level FlightAware Approximate
Sat 11:07:00 PM 24.7414 -88.3229 155° Southeast  Level FlightAware Approximate
Sat 11:08:00 PM 24.6204 -88.2613 155° Southeast  Level FlightAware Approximate
Sat 11:09:00 PM 24.4995 -88.1998 160° South  Level FlightAware Approximate
Sat 11:10:00 PM 24.3743 -88.1496 160° South  Level FlightAware Approximate
Sat 11:11:00 PM 24.2490 -88.0995 160° South  Level FlightAware Approximate
Sat 11:12:00 PM 24.1238 -88.0495 160° South  Level FlightAware Approximate
Sat 11:13:00 PM 23.9986 -87.9994 160° South  Level FlightAware Approximate
Sat 11:14:00 PM 23.8734 -87.9492 160° South  Level FlightAware Approximate
Sat 11:15:00 PM 23.7483 -87.8992 160° South  Level FlightAware Approximate
Sat 11:16:00 PM 23.6223 -87.8519 163° South  Level FlightAware Approximate
Sat 11:17:00 PM 23.4948 -87.8094 163° South  Level FlightAware Approximate
Sat 11:18:00 PM 23.3692 -87.7609 160° South  Level FlightAware Approximate
Sat 11:19:00 PM 23.2441 -87.7108 160° South  Level FlightAware Approximate
Sat 11:20:00 PM 23.1190 -87.6609 160° South  Level FlightAware Approximate
Sat 11:20:46 PM 22.7460 -87.5170 160° South 495 570 35,000  Level FlightAware ADS-B
Sat 11:21:27 PM 22.6740 -87.4890 160° South 496 571 35,000  Level FlightAware ADS-B
Sat 11:22:24 PM 22.5820 -87.4520 160° South 496 571 35,000  Level FlightAware ADS-B
Sat 11:23:16 PM 22.4540 -87.4030 161° South 494 568 35,000  Level FlightAware ADS-B
Sat 11:23:52 PM 22.3880 -87.3770 160° South 494 568 35,000  Level FlightAware ADS-B
Sat 11:24:34 PM 22.2540 -87.3270 161° South 493 567 35,000  Level FlightAware ADS-B
Sat 11:25:14 PM 22.1670 -87.2940 161° South 494 568 35,000  Level FlightAware ADS-B
Sat 11:25:59 PM 22.0700 -87.2560 160° South 494 568 35,000  Level FlightAware ADS-B
Sat 11:26:39 PM 21.9850 -87.2240 161° South 495 570 35,000  Level FlightAware ADS-B
Sat 11:27:22 PM 21.8890 -87.1870 160° South 497 572 35,000  Level FlightAware ADS-B
Sat 11:28:06 PM 21.7940 -87.1510 161° South 497 572 35,000  Level FlightAware ADS-B
Sat 11:28:46 PM 21.7050 -87.1170 160° South 500 575 35,000  Level FlightAware ADS-B
Sat 11:29:28 PM 21.6130 -87.0820 161° South 501 577 35,000  Level FlightAware ADS-B
Sat 11:30:12 PM 21.5170 -87.0450 160° South 501 577 35,000  Level FlightAware ADS-B
Sat 11:30:54 PM 21.4270 -87.0110 161° South 501 577 35,000  Level FlightAware ADS-B
Sat 11:31:34 PM 21.3370 -86.9770 161° South 499 574 35,000  Level FlightAware ADS-B
Sat 11:32:14 PM 21.2520 -86.9450 161° South 496 571 35,000  Level FlightAware ADS-B
Sat 11:32:58 PM 21.1560 -86.9080 160° South 494 568 35,000  Level FlightAware ADS-B
Sat 11:33:42 PM 21.0620 -86.8720 160° South 493 567 35,000  Level FlightAware ADS-B
Sat 11:34:22 PM 20.9840 -86.8190 148° Southeast 495 570 35,000  Level FlightAware ADS-B
Sat 11:35:06 PM 20.9090 -86.7470 138° Southeast 495 570 35,000  Level FlightAware ADS-B
Sat 11:35:48 PM 20.8410 -86.6800 137° Southeast 496 571 35,000  Level FlightAware ADS-B
Sat 11:36:28 PM 20.7720 -86.6130 138° Southeast 496 571 35,000  Level FlightAware ADS-B
Sat 11:37:11 PM 20.6990 -86.5420 138° Southeast 497 572 35,000  Level FlightAware ADS-B
Sat 11:37:52 PM 20.6270 -86.4720 138° Southeast 499 574 35,000  Level FlightAware ADS-B
Sat 11:38:36 PM 20.5550 -86.4030 138° Southeast 498 573 35,000  Level FlightAware ADS-B
Sat 11:39:14 PM 20.4890 -86.3390 138° Southeast 498 573 35,000  Level FlightAware ADS-B
Sat 11:40:01 PM 20.4160 -86.2680 138° Southeast 498 573 35,000  Level FlightAware ADS-B
Sat 11:40:57 PM 20.3190 -86.1750 138° Southeast 499 574 35,000  Level FlightAware ADS-B
Sat 11:41:45 PM 20.2500 -86.1060 137° Southeast 499 574 35,000  Level FlightAware ADS-B
Sat 11:42:28 PM 20.1560 -86.0190 139° Southeast 494 568 35,000  Level FlightAware ADS-B
Sat 11:43:08 PM 20.0870 -85.9540 138° Southeast 493 567 35,000  Level FlightAware ADS-B
Sat 11:43:48 PM 20.0190 -85.8890 138° Southeast 491 565 35,000  Level FlightAware ADS-B
Sat 11:44:32 PM 19.9480 -85.8150 136° Southeast 490 564 35,000  Level FlightAware ADS-B
Sat 11:45:13 PM 19.8840 -85.7450 134° Southeast 491 565 35,000  Level FlightAware ADS-B
Sat 11:45:58 PM 19.8110 -85.6670 135° Southeast 491 565 35,000  Level FlightAware ADS-B
Sat 11:46:38 PM 19.7460 -85.5970 135° Southeast 490 564 35,000  Level FlightAware ADS-B
Sat 11:47:18 PM 19.6820 -85.5300 135° Southeast 491 565 35,000  Level FlightAware ADS-B
Sat 11:48:31 PM 19.5780 -85.4180 135° Southeast 491 565 35,000  Level FlightAware ADS-B
Sat 11:49:07 PM 19.5300 -85.3650 134° Southeast 491 565 35,000  Level FlightAware ADS-B
Sat 11:49:55 PM 19.4650 -85.2940 134° Southeast 491 565 35,000  Level FlightAware ADS-B
Sat 11:50:31 PM 19.4170 -85.2410 134° Southeast 491 565 35,000  Level FlightAware ADS-B
Sat 11:51:26 PM 19.2830 -85.1080 137° Southeast 489 563 35,000  Level FlightAware ADS-B
Sat 11:51:59 PM 19.2380 -85.0610 135° Southeast 489 563 35,000  Level FlightAware ADS-B
Sat 11:52:50 PM 19.1490 -84.9670 135° Southeast 487 560 35,000  Level FlightAware ADS-B
Sat 11:53:40 PM 19.0810 -84.8960 135° Southeast 487 560 35,000  Level FlightAware ADS-B
Sat 11:54:16 PM 19.0320 -84.8440 135° Southeast 487 560 35,000  Level FlightAware ADS-B
Sat 11:55:04 PM 18.9670 -84.7750 135° Southeast 487 560 35,000  Level FlightAware ADS-B
Sat 11:55:40 PM 18.9180 -84.7240 135° Southeast 487 560 35,000  Level FlightAware ADS-B
Sat 11:56:28 PM 18.8530 -84.6550 135° Southeast 487 560 35,000  Level FlightAware ADS-B
Sat 11:57:04 PM 18.8050 -84.6040 135° Southeast 487 560 35,000  Level FlightAware ADS-B
Sat 11:57:52 PM 18.7400 -84.5350 135° Southeast 487 560 35,000  Level FlightAware ADS-B
Sat 11:58:28 PM 18.6910 -84.4830 135° Southeast 487 560 35,000  Level FlightAware ADS-B
Sat 11:59:04 PM 18.6420 -84.4320 135° Southeast 487 560 35,000  Level FlightAware ADS-B
Sat 11:59:52 PM 18.5770 -84.3630 135° Southeast 487 560 35,000  Level FlightAware ADS-B
Sun 12:00:40 AM 18.5120 -84.2950 135° Southeast 487 560 35,000  Level FlightAware ADS-B
Sun 12:01:16 AM 18.4630 -84.2430 135° Southeast 487 560 35,000  Level FlightAware ADS-B
Sun 12:02:05 AM 18.3970 -84.1740 135° Southeast 487 560 35,000  Level FlightAware ADS-B
Sun 12:02:41 AM 18.3480 -84.1220 135° Southeast 487 560 35,000 26 Level FlightAware ADS-B
Sun 12:05:00 AM 18.1190 -83.9039 138° Southeast  Level FlightAware Approximate
Sun 12:06:00 AM 18.0201 -83.8100 138° Southeast  Level FlightAware Approximate
Sun 12:07:00 AM 17.9211 -83.7161 138° Southeast  Level FlightAware Approximate
Sun 12:08:00 AM 17.8221 -83.6223 138° Southeast  Level FlightAware Approximate
Sun 12:09:00 AM 17.7231 -83.5287 138° Southeast  Level FlightAware Approximate
Sun 12:10:00 AM 17.6240 -83.4351 138° Southeast  Level FlightAware Approximate
Sun 12:11:00 AM 17.5248 -83.3417 138° Southeast  Level FlightAware Approximate
Sun 12:12:00 AM 17.4256 -83.2484 138° Southeast  Level FlightAware Approximate
Sun 12:13:00 AM 17.3264 -83.1551 138° Southeast  Level FlightAware Approximate
Sun 12:14:00 AM 17.2271 -83.0620 138° Southeast  Level FlightAware Approximate
Sun 12:15:00 AM 17.1278 -82.9689 138° Southeast  Level FlightAware Approximate
Sun 12:16:00 AM 17.0285 -82.8760 138° Southeast  Level FlightAware Approximate
Sun 12:17:00 AM 16.9291 -82.7832 138° Southeast  Level FlightAware Approximate
Sun 12:18:00 AM 16.8296 -82.6904 138° Southeast  Level FlightAware Approximate
Sun 12:19:00 AM 16.7301 -82.5978 138° Southeast  Level FlightAware Approximate
Sun 12:20:00 AM 16.6306 -82.5052 138° Southeast  Level FlightAware Approximate
Sun 12:21:00 AM 16.5310 -82.4128 138° Southeast  Level FlightAware Approximate
Sun 12:22:00 AM 16.4314 -82.3204 138° Southeast  Level FlightAware Approximate
Sun 12:23:00 AM 16.3318 -82.2281 138° Southeast  Level FlightAware Approximate
Sun 12:24:00 AM 16.2327 -82.1349 137° Southeast  Level FlightAware Approximate
Sun 12:25:00 AM 16.1345 -82.0411 137° Southeast  Level FlightAware Approximate
Sun 12:26:00 AM 16.0362 -81.9474 137° Southeast  Level FlightAware Approximate
Sun 12:27:00 AM 15.9380 -81.8538 138° Southeast  Level FlightAware Approximate
Sun 12:28:00 AM 15.8396 -81.7602 138° Southeast  Level FlightAware Approximate
Sun 12:29:00 AM 15.7412 -81.6668 138° Southeast  Level FlightAware Approximate
Sun 12:30:00 AM 15.6428 -81.5734 138° Southeast  Level FlightAware Approximate
Sun 12:31:00 AM 15.5443 -81.4801 138° Southeast  Level FlightAware Approximate
Sun 12:32:00 AM 15.4459 -81.3869 138° Southeast  Level FlightAware Approximate
Sun 12:33:00 AM 15.3473 -81.2938 138° Southeast  Level FlightAware Approximate
Sun 12:34:00 AM 15.2493 -81.2013 138° Southeast  Level FlightAware Approximate
Sun 12:35:00 AM 15.1511 -81.1088 138° Southeast  Level FlightAware Approximate
Sun 12:36:00 AM 15.0530 -81.0165 138° Southeast  Level FlightAware Approximate
Sun 12:37:00 AM 14.9546 -80.9245 138° Southeast  Level FlightAware Approximate
Sun 12:38:00 AM 14.8560 -80.8327 138° Southeast  Level FlightAware Approximate
Sun 12:39:00 AM 14.7573 -80.7411 138° Southeast  Level FlightAware Approximate
Sun 12:40:00 AM 14.6586 -80.6496 138° Southeast  Level FlightAware Approximate
Sun 12:41:00 AM 14.5598 -80.5581 138° Southeast  Level FlightAware Approximate
Sun 12:42:00 AM 14.4610 -80.4668 138° Southeast  Level FlightAware Approximate
Sun 12:43:00 AM 14.3622 -80.3755 138° Southeast  Level FlightAware Approximate
Sun 12:44:00 AM 14.2633 -80.2843 138° Southeast  Level FlightAware Approximate
Sun 12:45:00 AM 14.1644 -80.1931 138° Southeast  Level FlightAware Approximate
Sun 12:46:00 AM 14.0655 -80.1021 138° Southeast  Level FlightAware Approximate
Sun 12:47:00 AM 13.9665 -80.0111 138° Southeast  Level FlightAware Approximate
Sun 12:48:00 AM 13.8675 -79.9202 138° Southeast  Level FlightAware Approximate
Sun 12:49:00 AM 13.7685 -79.8294 138° Southeast  Level FlightAware Approximate
Sun 12:50:00 AM 13.6694 -79.7386 138° Southeast  Level FlightAware Approximate
Sun 12:51:00 AM 13.5704 -79.6479 138° Southeast  Level FlightAware Approximate
Sun 12:52:00 AM 13.4713 -79.5573 138° Southeast  Level FlightAware Approximate
Sun 12:53:00 AM 13.3722 -79.4667 138° Southeast  Level FlightAware Approximate
Sun 12:54:00 AM 13.2730 -79.3762 138° Southeast  Level FlightAware Approximate
Sun 12:55:00 AM 13.1739 -79.2858 138° Southeast  Level FlightAware Approximate
Sun 12:56:00 AM 13.0746 -79.1954 138° Southeast  Level FlightAware Approximate
Sun 12:57:00 AM 12.9754 -79.1051 138° Southeast  Level FlightAware Approximate
Sun 12:58:00 AM 12.8761 -79.0149 138° Southeast  Level FlightAware Approximate
Sun 12:59:00 AM 12.7768 -78.9248 138° Southeast  Level FlightAware Approximate
Sun 01:00:00 AM 12.6775 -78.8347 138° Southeast  Level FlightAware Approximate
Sun 01:01:00 AM 12.5781 -78.7447 139° Southeast  Level FlightAware Approximate
Sun 01:02:00 AM 12.4788 -78.6548 139° Southeast  Level FlightAware Approximate
Sun 01:03:00 AM 12.3793 -78.5649 139° Southeast  Level FlightAware Approximate
Sun 01:04:00 AM 12.2799 -78.4751 139° Southeast  Level FlightAware Approximate
Sun 01:05:00 AM 12.1804 -78.3854 139° Southeast  Level FlightAware Approximate
Sun 01:06:00 AM 12.0809 -78.2958 139° Southeast  Level FlightAware Approximate
Sun 01:07:00 AM 11.9814 -78.2062 139° Southeast  Level FlightAware Approximate
Sun 01:08:00 AM 11.8818 -78.1166 139° Southeast  Level FlightAware Approximate
Sun 01:09:00 AM 11.7822 -78.0272 139° Southeast  Level FlightAware Approximate
Sun 01:10:00 AM 11.6826 -77.9378 139° Southeast  Level FlightAware Approximate
Sun 01:11:00 AM 11.5830 -77.8484 139° Southeast  Level FlightAware Approximate
Sun 01:12:00 AM 11.4833 -77.7591 139° Southeast  Level FlightAware Approximate
Sun 01:13:00 AM 11.3837 -77.6698 139° Southeast  Level FlightAware Approximate
Sun 01:14:00 AM 11.2840 -77.5807 139° Southeast  Level FlightAware Approximate
Sun 01:15:00 AM 11.1843 -77.4915 139° Southeast  Level FlightAware Approximate
Sun 01:16:00 AM 11.0845 -77.4025 139° Southeast  Level FlightAware Approximate
Sun 01:17:00 AM 10.9847 -77.3135 139° Southeast  Level FlightAware Approximate
Sun 01:18:00 AM 10.8849 -77.2245 139° Southeast  Level FlightAware Approximate
Sun 01:19:00 AM 10.7851 -77.1357 139° Southeast  Level FlightAware Approximate
Sun 01:19:30 AM 10.4780 -76.9690 139° Southeast 483 556 37,000  Level FlightAware ADS-B
Sun 01:20:00 AM 10.6853 -77.0468 139° Southeast  Level FlightAware Approximate
Sun 01:20:10 AM 10.4120 -76.9070 137° Southeast 481 554 37,000  Level FlightAware ADS-B
Sun 01:20:55 AM 10.3420 -76.8420 138° Southeast 483 556 37,000  Level FlightAware ADS-B
Sun 01:21:35 AM 10.2770 -76.7820 138° Southeast 481 554 37,000  Level FlightAware ADS-B
Sun 01:22:15 AM 10.2090 -76.7190 138° Southeast 479 551 37,000  Level FlightAware ADS-B
Sun 01:22:55 AM 10.1460 -76.6600 137° Southeast 479 551 37,000  Level FlightAware ADS-B
Sun 01:23:40 AM 10.0840 -76.6020 137° Southeast 479 551 37,000  Level FlightAware ADS-B
Sun 01:24:50 AM 9.9540 -76.4820 138° Southeast 474 545 37,000  Level FlightAware ADS-B
Sun 01:25:36 AM 9.8880 -76.4210 138° Southeast 473 544 37,000  Level FlightAware ADS-B
Sun 01:26:10 AM 9.8250 -76.3630 138° Southeast 473 544 37,000  Level FlightAware ADS-B
Sun 01:26:55 AM 9.7550 -76.2980 138° Southeast 473 544 37,000  Level FlightAware ADS-B
Sun 01:27:35 AM 9.6870 -76.2350 138° Southeast 475 547 37,000  Level FlightAware ADS-B
Sun 01:28:10 AM 9.6290 -76.1820 138° Southeast 476 548 37,000  Level FlightAware ADS-B
Sun 01:28:50 AM 9.5650 -76.1230 138° Southeast 477 549 37,000  Level FlightAware ADS-B
Sun 01:29:35 AM 9.4900 -76.0540 138° Southeast 477 549 37,000  Level FlightAware ADS-B
Sun 01:30:15 AM 9.4240 -75.9930 138° Southeast 479 551 37,000  Level FlightAware ADS-B
Sun 01:30:50 AM 9.3710 -75.9450 138° Southeast 481 554 37,000  Level FlightAware ADS-B
Sun 01:31:45 AM 9.2780 -75.8580 137° Southeast 481 554 37,000  Level FlightAware ADS-B
Sun 01:32:20 AM 9.2230 -75.8080 138° Southeast 480 552 37,000  Level FlightAware ADS-B
Sun 01:33:05 AM 9.1510 -75.7420 138° Southeast 481 554 37,000  Level FlightAware ADS-B
Sun 01:33:45 AM 9.0950 -75.6900 137° Southeast 481 554 37,000  Level FlightAware ADS-B
Sun 01:34:33 AM 9.0270 -75.6290 138° Southeast 481 554 37,000  Level FlightAware ADS-B
Sun 01:35:22 AM 8.9580 -75.5660 138° Southeast 481 554 37,000  Level FlightAware ADS-B
Sun 01:36:20 AM 8.8340 -75.4500 137° Southeast 469 540 37,000  Level FlightAware ADS-B
Sun 01:36:55 AM 8.7780 -75.3990 138° Southeast 470 541 37,000  Level FlightAware ADS-B
Sun 01:37:35 AM 8.7080 -75.3350 138° Southeast 471 542 37,000  Level FlightAware ADS-B
Sun 01:38:20 AM 8.6350 -75.2690 138° Southeast 471 542 37,000  Level FlightAware ADS-B
Sun 01:39:00 AM 8.5720 -75.2100 137° Southeast 471 542 37,000  Level FlightAware ADS-B
Sun 01:39:45 AM 8.5000 -75.1450 138° Southeast 471 542 37,000  Level FlightAware ADS-B
Sun 01:40:25 AM 8.4330 -75.0840 138° Southeast 472 543 37,000  Level FlightAware ADS-B
Sun 01:41:05 AM 8.3670 -75.0230 138° Southeast 473 544 37,000  Level FlightAware ADS-B
Sun 01:41:50 AM 8.3010 -74.9630 138° Southeast 474 545 37,000  Level FlightAware ADS-B
Sun 01:42:25 AM 8.2380 -74.9050 138° Southeast 474 545 37,000  Level FlightAware ADS-B
Sun 01:43:05 AM 8.1750 -74.8480 138° Southeast 473 544 37,000  Level FlightAware ADS-B
Sun 01:43:50 AM 8.0980 -74.7780 138° Southeast 471 542 37,000  Level FlightAware ADS-B
Sun 01:44:30 AM 8.0350 -74.7200 138° Southeast 469 540 37,000  Level FlightAware ADS-B
Sun 01:45:10 AM 7.9740 -74.6640 138° Southeast 468 539 37,000  Level FlightAware ADS-B
Sun 01:45:50 AM 7.9070 -74.6030 138° Southeast 466 536 37,000  Level FlightAware ADS-B
Sun 01:46:35 AM 7.8340 -74.5360 138° Southeast 465 535 37,000  Level FlightAware ADS-B
Sun 01:47:10 AM 7.7780 -74.4860 139° Southeast 467 537 37,000  Level FlightAware ADS-B
Sun 01:47:55 AM 7.7060 -74.4200 138° Southeast 469 540 37,000  Level FlightAware ADS-B
Sun 01:48:35 AM 7.6440 -74.3640 138° Southeast 469 540 37,000  Level FlightAware ADS-B
Sun 01:49:10 AM 7.5850 -74.3100 138° Southeast 471 542 37,000  Level FlightAware ADS-B
Sun 01:50:00 AM 7.5030 -74.2350 138° Southeast 472 543 37,000  Level FlightAware ADS-B
Sun 01:50:40 AM 7.4390 -74.1770 138° Southeast 473 544 37,000  Level FlightAware ADS-B
Sun 01:51:20 AM 7.3720 -74.1170 138° Southeast 474 545 37,000  Level FlightAware ADS-B
Sun 01:52:05 AM 7.3050 -74.0560 138° Southeast 475 547 37,000  Level FlightAware ADS-B
Sun 01:52:44 AM 7.2510 -74.0070 138° Southeast 475 547 37,000  Level FlightAware ADS-B
Sun 01:53:21 AM 7.1990 -73.9600 138° Southeast 475 547 37,000  Level FlightAware ADS-B
Sun 01:54:09 AM 7.1330 -73.9000 138° Southeast 475 547 37,000  Level FlightAware ADS-B
Sun 01:54:47 AM 7.0800 -73.8520 138° Southeast 475 547 37,000  Level FlightAware ADS-B
Sun 01:55:30 AM 6.9480 -73.7610 146° Southeast 485 558 37,000  Level FlightAware ADS-B
Sun 01:56:10 AM 6.8700 -73.7190 152° Southeast 484 557 37,000  Level FlightAware ADS-B
Sun 01:56:50 AM 6.7900 -73.6770 152° Southeast 485 558 37,000  Level FlightAware ADS-B
Sun 01:57:35 AM 6.7030 -73.6290 151° Southeast 485 558 37,000  Level FlightAware ADS-B
Sun 01:58:11 AM 6.6290 -73.5890 152° Southeast 485 558 37,000  Level FlightAware ADS-B
Sun 01:58:59 AM 6.5350 -73.5380 152° Southeast 486 559 37,000  Level FlightAware ADS-B
Sun 01:59:39 AM 6.4540 -73.4950 152° Southeast 486 559 37,000  Level FlightAware ADS-B
Sun 02:00:23 AM 6.3670 -73.4480 152° Southeast 486 559 37,000  Level FlightAware ADS-B
Sun 02:01:03 AM 6.2880 -73.4050 152° Southeast 486 559 37,000  Level FlightAware ADS-B
Sun 02:01:45 AM 6.2050 -73.3600 152° Southeast 485 558 37,000  Level FlightAware ADS-B
Sun 02:02:27 AM 6.1210 -73.3150 152° Southeast 484 557 37,000  Level FlightAware ADS-B
Sun 02:03:08 AM 6.0540 -73.2780 151° Southeast 484 557 37,000  Level FlightAware ADS-B
Sun 02:04:08 AM 5.9540 -73.2220 151° Southeast 484 557 37,000  Level FlightAware ADS-B
Sun 02:04:44 AM 5.8940 -73.1890 151° Southeast 484 557 37,000  Level FlightAware ADS-B
Sun 02:05:33 AM 5.8130 -73.1430 151° Southeast 484 557 37,000  Level FlightAware ADS-B
Sun 02:06:10 AM 5.7510 -73.1090 151° Southeast 484 557 37,000  Level FlightAware ADS-B
Sun 02:06:59 AM 5.5830 -73.0250 154° Southeast 485 558 37,000  Level FlightAware ADS-B
Sun 02:07:39 AM 5.5020 -72.9810 152° Southeast 483 556 37,000  Level FlightAware ADS-B
Sun 02:08:18 AM 5.4270 -72.9410 152° Southeast 483 556 37,000  Level FlightAware ADS-B
Sun 02:09:03 AM 5.3370 -72.8920 152° Southeast 482 555 37,000  Level FlightAware ADS-B
Sun 02:09:43 AM 5.2580 -72.8500 152° Southeast 480 552 37,000  Level FlightAware ADS-B
Sun 02:10:33 AM 5.1610 -72.7980 152° Southeast 478 550 37,000  Level FlightAware ADS-B
Sun 02:13:00 AM 4.8751 -72.6430 152° Southeast  Level FlightAware Approximate
Sun 02:13:21 AM 4.8740 -72.6400 152° Southeast 478 550 37,000  Level FlightAware ADS-B
Sun 02:14:22 AM 4.7740 -72.5840 151° Southeast 478 550 37,000  Level FlightAware ADS-B
Sun 02:14:58 AM 4.7140 -72.5510 151° Southeast 478 550 37,000  Level FlightAware ADS-B
Sun 02:15:46 AM 4.6360 -72.5070 151° Southeast 478 550 37,000  Level FlightAware ADS-B
Sun 02:16:22 AM 4.5760 -72.4740 151° Southeast 478 550 37,000  Level FlightAware ADS-B
Sun 02:17:10 AM 4.4970 -72.4300 151° Southeast 478 550 37,000  Level FlightAware ADS-B
Sun 02:17:46 AM 4.4380 -72.3970 151° Southeast 478 550 37,000  Level FlightAware ADS-B
Sun 02:18:34 AM 4.3590 -72.3530 151° Southeast 478 550 37,000  Level FlightAware ADS-B
Sun 02:19:10 AM 4.3000 -72.3210 152° Southeast 478 550 37,000  Level FlightAware ADS-B
Sun 02:19:58 AM 4.2210 -72.2770 151° Southeast 478 550 37,000  Level FlightAware ADS-B
Sun 02:20:23 AM 4.1800 -72.2540 151° Southeast 478 550 37,000 Level FlightAware ADS-B
Sun 02:23:00 AM 3.8743 -72.0916 145° Southeast  Level FlightAware Approximate
Sun 02:24:00 AM 3.7660 -72.0149 145° Southeast  Level FlightAware Approximate
Sun 02:25:00 AM 3.6577 -71.9382 145° Southeast  Level FlightAware Approximate
Sun 02:26:00 AM 3.5493 -71.8616 145° Southeast  Level FlightAware Approximate
Sun 02:27:00 AM 3.4410 -71.7850 145° Southeast  Level FlightAware Approximate
Sun 02:28:00 AM 3.3326 -71.7084 145° Southeast  Level FlightAware Approximate
Sun 02:29:00 AM 3.2242 -71.6319 145° Southeast  Level FlightAware Approximate
Sun 02:30:00 AM 3.1155 -71.5558 145° Southeast  Level FlightAware Approximate
Sun 02:31:00 AM 3.0069 -71.4797 145° Southeast  Level FlightAware Approximate
Sun 02:32:00 AM 2.8982 -71.4036 145° Southeast  Level FlightAware Approximate
Sun 02:33:00 AM 2.7895 -71.3276 145° Southeast  Level FlightAware Approximate
Sun 02:34:00 AM 2.6808 -71.2515 145° Southeast  Level FlightAware Approximate
Sun 02:35:00 AM 2.5721 -71.1754 145° Southeast  Level FlightAware Approximate
Sun 02:36:00 AM 2.4637 -71.0991 145° Southeast  Level FlightAware Approximate
Sun 02:37:00 AM 2.3552 -71.0227 145° Southeast  Level FlightAware Approximate
Sun 02:38:00 AM 2.2468 -70.9463 145° Southeast  Level FlightAware Approximate
Sun 02:39:00 AM 2.1383 -70.8700 145° Southeast  Level FlightAware Approximate
Sun 02:40:00 AM 2.0299 -70.7936 145° Southeast  Level FlightAware Approximate
Sun 02:41:00 AM 1.9214 -70.7173 145° Southeast  Level FlightAware Approximate
Sun 02:42:00 AM 1.8129 -70.6410 145° Southeast  Level FlightAware Approximate
Sun 02:43:00 AM 1.7044 -70.5647 145° Southeast  Level FlightAware Approximate
Sun 02:44:00 AM 1.5960 -70.4883 145° Southeast  Level FlightAware Approximate
Sun 02:45:00 AM 1.4875 -70.4120 145° Southeast  Level FlightAware Approximate
Sun 02:46:00 AM 1.3790 -70.3357 145° Southeast  Level FlightAware Approximate
Sun 02:47:00 AM 1.2705 -70.2595 145° Southeast  Level FlightAware Approximate
Sun 02:48:00 AM 1.1682 -70.1754 138° Southeast  Level FlightAware Approximate
Sun 02:49:00 AM 1.0691 -70.0872 138° Southeast  Level FlightAware Approximate
Sun 02:50:00 AM 0.9701 -69.9990 138° Southeast  Level FlightAware Approximate
Sun 02:51:00 AM 0.8710 -69.9108 138° Southeast  Level FlightAware Approximate
Sun 02:52:00 AM 0.7720 -69.8227 138° Southeast  Level FlightAware Approximate
Sun 02:53:00 AM 0.6729 -69.7345 138° Southeast  Level FlightAware Approximate
Sun 02:54:00 AM 0.5738 -69.6464 138° Southeast  Level FlightAware Approximate
Sun 02:55:00 AM 0.4748 -69.5582 138° Southeast  Level FlightAware Approximate
Sun 02:56:00 AM 0.3757 -69.4701 138° Southeast  Level FlightAware Approximate
Sun 02:57:00 AM 0.2766 -69.3819 138° Southeast  Level FlightAware Approximate
Sun 02:58:00 AM 0.1775 -69.2938 138° Southeast  Level FlightAware Approximate
Sun 02:59:00 AM 0.0785 -69.2056 138° Southeast  Level FlightAware Approximate
Sun 03:00:00 AM -0.0206 -69.1175 138° Southeast  Level FlightAware Approximate
Sun 03:01:00 AM -0.1197 -69.0293 138° Southeast  Level FlightAware Approximate
Sun 03:02:00 AM -0.2187 -68.9412 138° Southeast  Level FlightAware Approximate
Sun 03:03:00 AM -0.3178 -68.8530 138° Southeast  Level FlightAware Approximate
Sun 03:04:00 AM -0.4169 -68.7649 138° Southeast  Level FlightAware Approximate
Sun 03:05:00 AM -0.5160 -68.6767 138° Southeast  Level FlightAware Approximate
Sun 03:06:00 AM -0.6150 -68.5886 138° Southeast  Level FlightAware Approximate
Sun 03:07:00 AM -0.7141 -68.5004 138° Southeast  Level FlightAware Approximate
Sun 03:08:00 AM -0.8132 -68.4123 138° Southeast  Level FlightAware Approximate
Sun 03:09:00 AM -0.9122 -68.3241 138° Southeast  Level FlightAware Approximate
Sun 03:10:00 AM -1.0113 -68.2359 138° Southeast  Level FlightAware Approximate
Sun 03:11:00 AM -1.1104 -68.1478 138° Southeast  Level FlightAware Approximate
Sun 03:12:00 AM -1.2094 -68.0596 138° Southeast  Level FlightAware Approximate
Sun 03:13:00 AM -1.3085 -67.9714 138° Southeast  Level FlightAware Approximate
Sun 03:14:00 AM -1.4075 -67.8832 138° Southeast  Level FlightAware Approximate
Sun 03:15:00 AM -1.5066 -67.7950 138° Southeast  Level FlightAware Approximate
Sun 03:16:00 AM -1.6056 -67.7068 138° Southeast  Level FlightAware Approximate
Sun 03:17:00 AM -1.7047 -67.6186 138° Southeast  Level FlightAware Approximate
Sun 03:18:00 AM -1.8037 -67.5303 138° Southeast  Level FlightAware Approximate
Sun 03:19:00 AM -1.9027 -67.4421 138° Southeast  Level FlightAware Approximate
Sun 03:20:00 AM -2.0018 -67.3538 138° Southeast  Level FlightAware Approximate
Sun 03:21:00 AM -2.1008 -67.2656 138° Southeast  Level FlightAware Approximate
Sun 03:22:00 AM -2.1998 -67.1773 138° Southeast  Level FlightAware Approximate
Sun 03:23:00 AM -2.2988 -67.0890 138° Southeast  Level FlightAware Approximate
Sun 03:24:00 AM -2.3978 -67.0007 138° Southeast  Level FlightAware Approximate
Sun 03:25:00 AM -2.4968 -66.9124 138° Southeast  Level FlightAware Approximate
Sun 03:26:00 AM -2.5958 -66.8241 138° Southeast  Level FlightAware Approximate
Sun 03:27:00 AM -2.6948 -66.7358 138° Southeast  Level FlightAware Approximate
Sun 03:28:00 AM -2.7938 -66.6474 138° Southeast  Level FlightAware Approximate
Sun 03:29:00 AM -2.8928 -66.5591 138° Southeast  Level FlightAware Approximate
Sun 03:30:00 AM -2.9917 -66.4707 138° Southeast  Level FlightAware Approximate
Sun 03:31:00 AM -3.0907 -66.3823 138° Southeast  Level FlightAware Approximate
Sun 03:32:00 AM -3.1897 -66.2939 138° Southeast  Level FlightAware Approximate
Sun 03:33:00 AM -3.2886 -66.2055 138° Southeast  Level FlightAware Approximate
Sun 03:34:00 AM -3.3876 -66.1170 138° Southeast  Level FlightAware Approximate
Sun 03:35:00 AM -3.4865 -66.0286 138° Southeast  Level FlightAware Approximate
Sun 03:36:00 AM -3.5854 -65.9401 138° Southeast  Level FlightAware Approximate
Sun 03:37:00 AM -3.6843 -65.8516 138° Southeast  Level FlightAware Approximate
Sun 03:38:00 AM -3.7832 -65.7631 138° Southeast  Level FlightAware Approximate
Sun 03:39:00 AM -3.8821 -65.6745 138° Southeast  Level FlightAware Approximate
Sun 03:40:00 AM -3.9810 -65.5860 138° Southeast  Level FlightAware Approximate
Sun 03:41:00 AM -4.0799 -65.4974 138° Southeast  Level FlightAware Approximate
Sun 03:42:00 AM -4.1788 -65.4088 138° Southeast  Level FlightAware Approximate
Sun 03:43:00 AM -4.2776 -65.3202 138° Southeast  Level FlightAware Approximate
Sun 03:44:00 AM -4.3765 -65.2315 138° Southeast  Level FlightAware Approximate
Sun 03:45:00 AM -4.4753 -65.1428 138° Southeast  Level FlightAware Approximate
Sun 03:46:00 AM -4.5742 -65.0541 138° Southeast  Level FlightAware Approximate
Sun 03:47:00 AM -4.6730 -64.9654 138° Southeast  Level FlightAware Approximate
Sun 03:48:00 AM -4.7718 -64.8767 138° Southeast  Level FlightAware Approximate
Sun 03:49:00 AM -4.8706 -64.7879 138° Southeast  Level FlightAware Approximate
Sun 03:50:00 AM -4.9693 -64.6991 138° Southeast  Level FlightAware Approximate
Sun 03:51:00 AM -5.0681 -64.6103 138° Southeast  Level FlightAware Approximate
Sun 03:52:00 AM -5.1669 -64.5214 138° Southeast  Level FlightAware Approximate
Sun 03:53:00 AM -5.2656 -64.4325 138° Southeast  Level FlightAware Approximate
Sun 03:54:00 AM -5.3644 -64.3436 138° Southeast  Level FlightAware Approximate
Sun 03:55:00 AM -5.4631 -64.2547 138° Southeast  Level FlightAware Approximate
Sun 03:56:00 AM -5.5618 -64.1657 138° Southeast  Level FlightAware Approximate
Sun 03:57:00 AM -5.6605 -64.0767 138° Southeast  Level FlightAware Approximate
Sun 03:58:00 AM -5.7592 -63.9877 138° Southeast  Level FlightAware Approximate
Sun 03:59:00 AM -5.8578 -63.8986 138° Southeast  Level FlightAware Approximate
Sun 04:00:00 AM -5.9565 -63.8095 138° Southeast  Level FlightAware Approximate
Sun 04:01:00 AM -6.0551 -63.7204 138° Southeast  Level FlightAware Approximate
Sun 04:02:00 AM -6.1537 -63.6313 138° Southeast  Level FlightAware Approximate
Sun 04:03:00 AM -6.2523 -63.5421 138° Southeast  Level FlightAware Approximate
Sun 04:04:00 AM -6.3509 -63.4529 138° Southeast  Level FlightAware Approximate
Sun 04:05:00 AM -6.4495 -63.3636 138° Southeast  Level FlightAware Approximate
Sun 04:06:00 AM -6.5481 -63.2743 138° Southeast  Level FlightAware Approximate
Sun 04:07:00 AM -6.6466 -63.1850 138° Southeast  Level FlightAware Approximate
Sun 04:08:00 AM -6.7452 -63.0956 138° Southeast  Level FlightAware Approximate
Sun 04:09:00 AM -6.8437 -63.0062 138° Southeast  Level FlightAware Approximate
Sun 04:10:00 AM -6.9422 -62.9168 138° Southeast  Level FlightAware Approximate
Sun 04:11:00 AM -7.0407 -62.8273 138° Southeast  Level FlightAware Approximate
Sun 04:12:00 AM -7.1391 -62.7378 138° Southeast  Level FlightAware Approximate
Sun 04:13:00 AM -7.2376 -62.6483 138° Southeast  Level FlightAware Approximate
Sun 04:14:00 AM -7.3360 -62.5587 138° Southeast  Level FlightAware Approximate
Sun 04:15:00 AM -7.4344 -62.4691 138° Southeast  Level FlightAware Approximate
Sun 04:16:00 AM -7.5328 -62.3794 138° Southeast  Level FlightAware Approximate
Sun 04:17:00 AM -7.6312 -62.2897 138° Southeast  Level FlightAware Approximate
Sun 04:18:00 AM -7.7296 -62.1999 138° Southeast  Level FlightAware Approximate
Sun 04:19:00 AM -7.8279 -62.1101 138° Southeast  Level FlightAware Approximate
Sun 04:20:00 AM -7.9262 -62.0203 138° Southeast  Level FlightAware Approximate
Sun 04:21:00 AM -8.0245 -61.9304 138° Southeast  Level FlightAware Approximate
Sun 04:22:00 AM -8.1228 -61.8405 138° Southeast  Level FlightAware Approximate
Sun 04:23:00 AM -8.2211 -61.7506 138° Southeast  Level FlightAware Approximate
Sun 04:24:00 AM -8.3193 -61.6605 138° Southeast  Level FlightAware Approximate
Sun 04:25:00 AM -8.4175 -61.5705 138° Southeast  Level FlightAware Approximate
Sun 04:26:00 AM -8.5157 -61.4804 138° Southeast  Level FlightAware Approximate
Sun 04:27:00 AM -8.6139 -61.3903 138° Southeast  Level FlightAware Approximate
Sun 04:28:00 AM -8.7121 -61.3001 138° Southeast  Level FlightAware Approximate
Sun 04:29:00 AM -8.8102 -61.2098 138° Southeast  Level FlightAware Approximate
Sun 04:30:00 AM -8.9083 -61.1195 138° Southeast  Level FlightAware Approximate
Sun 04:31:00 AM -9.0064 -61.0292 138° Southeast  Level FlightAware Approximate
Sun 04:32:00 AM -9.1045 -60.9388 138° Southeast  Level FlightAware Approximate
Sun 04:33:00 AM -9.2025 -60.8484 138° Southeast  Level FlightAware Approximate
Sun 04:34:00 AM -9.3006 -60.7579 138° Southeast  Level FlightAware Approximate
Sun 04:35:00 AM -9.3986 -60.6674 138° Southeast  Level FlightAware Approximate
Sun 04:36:00 AM -9.4966 -60.5768 138° Southeast  Level FlightAware Approximate
Sun 04:37:00 AM -9.5945 -60.4862 138° Southeast  Level FlightAware Approximate
Sun 04:38:00 AM -9.6925 -60.3955 138° Southeast  Level FlightAware Approximate
Sun 04:39:00 AM -9.7904 -60.3047 138° Southeast  Level FlightAware Approximate
Sun 04:40:00 AM -9.8883 -60.2139 138° Southeast  Level FlightAware Approximate
Sun 04:41:00 AM -9.9861 -60.1231 138° Southeast  Level FlightAware Approximate
Sun 04:42:00 AM -10.0840 -60.0322 138° Southeast  Level FlightAware Approximate
Sun 04:43:00 AM -10.1816 -59.9414 138° Southeast  Level FlightAware Approximate
Sun 04:44:00 AM -10.2792 -59.8505 138° Southeast  Level FlightAware Approximate
Sun 04:45:00 AM -10.3768 -59.7596 138° Southeast  Level FlightAware Approximate
Sun 04:46:00 AM -10.4744 -59.6686 137° Southeast  Level FlightAware Approximate
Sun 04:47:00 AM -10.5719 -59.5776 137° Southeast  Level FlightAware Approximate
Sun 04:48:00 AM -10.6694 -59.4865 137° Southeast  Level FlightAware Approximate
Sun 04:49:00 AM -10.7669 -59.3954 137° Southeast  Level FlightAware Approximate
Sun 04:50:00 AM -10.8644 -59.3042 137° Southeast  Level FlightAware Approximate
Sun 04:51:00 AM -10.9618 -59.2129 137° Southeast  Level FlightAware Approximate
Sun 04:52:00 AM -11.0592 -59.1216 137° Southeast  Level FlightAware Approximate
Sun 04:53:00 AM -11.1566 -59.0302 137° Southeast  Level FlightAware Approximate
Sun 04:54:00 AM -11.2540 -58.9388 137° Southeast  Level FlightAware Approximate
Sun 04:55:00 AM -11.3513 -58.8473 137° Southeast  Level FlightAware Approximate
Sun 04:56:00 AM -11.4486 -58.7557 137° Southeast  Level FlightAware Approximate
Sun 04:57:00 AM -11.5458 -58.6641 137° Southeast  Level FlightAware Approximate
Sun 04:58:00 AM -11.6431 -58.5724 137° Southeast  Level FlightAware Approximate
Sun 04:59:00 AM -11.7403 -58.4806 137° Southeast  Level FlightAware Approximate
Sun 05:00:00 AM -11.8375 -58.3888 137° Southeast  Level FlightAware Approximate
Sun 05:01:00 AM -11.9346 -58.2969 137° Southeast  Level FlightAware Approximate
Sun 05:02:00 AM -12.0317 -58.2050 137° Southeast  Level FlightAware Approximate
Sun 05:03:00 AM -12.1288 -58.1129 137° Southeast  Level FlightAware Approximate
Sun 05:04:00 AM -12.2259 -58.0209 137° Southeast  Level FlightAware Approximate
Sun 05:05:00 AM -12.3229 -57.9287 137° Southeast  Level FlightAware Approximate
Sun 05:06:00 AM -12.4199 -57.8365 137° Southeast  Level FlightAware Approximate
Sun 05:07:00 AM -12.5169 -57.7442 137° Southeast  Level FlightAware Approximate
Sun 05:08:00 AM -12.6138 -57.6518 137° Southeast  Level FlightAware Approximate
Sun 05:09:00 AM -12.7107 -57.5594 137° Southeast  Level FlightAware Approximate
Sun 05:10:00 AM -12.8076 -57.4669 137° Southeast  Level FlightAware Approximate
Sun 05:11:00 AM -12.9044 -57.3743 137° Southeast  Level FlightAware Approximate
Sun 05:12:00 AM -13.0013 -57.2817 137° Southeast  Level FlightAware Approximate
Sun 05:13:00 AM -13.0980 -57.1890 137° Southeast  Level FlightAware Approximate
Sun 05:14:00 AM -13.1948 -57.0962 137° Southeast  Level FlightAware Approximate
Sun 05:15:00 AM -13.2915 -57.0033 137° Southeast  Level FlightAware Approximate
Sun 05:16:00 AM -13.3881 -56.9104 137° Southeast  Level FlightAware Approximate
Sun 05:17:00 AM -13.4848 -56.8174 137° Southeast  Level FlightAware Approximate
Sun 05:18:00 AM -13.5814 -56.7243 137° Southeast  Level FlightAware Approximate
Sun 05:19:00 AM -13.6780 -56.6311 137° Southeast  Level FlightAware Approximate
Sun 05:20:00 AM -13.7745 -56.5379 137° Southeast  Level FlightAware Approximate
Sun 05:21:00 AM -13.8710 -56.4446 137° Southeast  Level FlightAware Approximate
Sun 05:22:00 AM -13.9675 -56.3512 137° Southeast  Level FlightAware Approximate
Sun 05:23:00 AM -14.0639 -56.2577 137° Southeast  Level FlightAware Approximate
Sun 05:24:00 AM -14.1603 -56.1642 137° Southeast  Level FlightAware Approximate
Sun 05:25:00 AM -14.2566 -56.0705 137° Southeast  Level FlightAware Approximate
Sun 05:26:00 AM -14.3530 -55.9768 137° Southeast  Level FlightAware Approximate
Sun 05:27:00 AM -14.4493 -55.8830 137° Southeast  Level FlightAware Approximate
Sun 05:28:00 AM -14.5455 -55.7892 137° Southeast  Level FlightAware Approximate
Sun 05:29:00 AM -14.6417 -55.6952 137° Southeast  Level FlightAware Approximate
Sun 05:30:00 AM -14.7379 -55.6012 137° Southeast  Level FlightAware Approximate
Sun 05:31:00 AM -14.8340 -55.5070 137° Southeast  Level FlightAware Approximate
Sun 05:32:00 AM -14.9301 -55.4128 137° Southeast  Level FlightAware Approximate
Sun 05:33:00 AM -15.0262 -55.3186 137° Southeast  Level FlightAware Approximate
Sun 05:34:00 AM -15.1222 -55.2242 137° Southeast  Level FlightAware Approximate
Sun 05:35:00 AM -15.2182 -55.1297 136° Southeast  Level FlightAware Approximate
Sun 05:36:00 AM -15.3141 -55.0352 136° Southeast  Level FlightAware Approximate
Sun 05:37:00 AM -15.4100 -54.9406 136° Southeast  Level FlightAware Approximate
Sun 05:38:00 AM -15.5059 -54.8458 136° Southeast  Level FlightAware Approximate
Sun 05:39:00 AM -15.6017 -54.7510 136° Southeast  Level FlightAware Approximate
Sun 05:40:00 AM -15.6975 -54.6561 136° Southeast  Level FlightAware Approximate
Sun 05:41:00 AM -15.7932 -54.5611 136° Southeast  Level FlightAware Approximate
Sun 05:42:00 AM -15.8889 -54.4661 136° Southeast  Level FlightAware Approximate
Sun 05:43:00 AM -15.9846 -54.3709 136° Southeast  Level FlightAware Approximate
Sun 05:44:00 AM -16.0802 -54.2756 136° Southeast  Level FlightAware Approximate
Sun 05:45:00 AM -16.1758 -54.1803 136° Southeast  Level FlightAware Approximate
Sun 05:46:00 AM -16.2713 -54.0849 136° Southeast  Level FlightAware Approximate
Sun 05:47:00 AM -16.3668 -53.9893 136° Southeast  Level FlightAware Approximate
Sun 05:48:00 AM -16.4622 -53.8937 136° Southeast  Level FlightAware Approximate
Sun 05:49:00 AM -16.5576 -53.7980 136° Southeast  Level FlightAware Approximate
Sun 05:50:00 AM -16.6530 -53.7021 136° Southeast  Level FlightAware Approximate
Sun 05:51:00 AM -16.7483 -53.6062 136° Southeast  Level FlightAware Approximate
Sun 05:52:00 AM -16.8435 -53.5102 136° Southeast  Level FlightAware Approximate
Sun 05:53:00 AM -16.9388 -53.4141 136° Southeast  Level FlightAware Approximate
Sun 05:54:00 AM -17.0340 -53.3179 136° Southeast  Level FlightAware Approximate
Sun 05:55:00 AM -17.1291 -53.2216 136° Southeast  Level FlightAware Approximate
Sun 05:56:00 AM -17.2242 -53.1252 136° Southeast  Level FlightAware Approximate
Sun 05:57:00 AM -17.3192 -53.0287 136° Southeast  Level FlightAware Approximate
Sun 05:58:00 AM -17.4142 -52.9321 136° Southeast  Level FlightAware Approximate
Sun 05:59:00 AM -17.5091 -52.8354 136° Southeast  Level FlightAware Approximate
Sun 06:00:00 AM -17.6040 -52.7386 136° Southeast  Level FlightAware Approximate
Sun 06:01:00 AM -17.6989 -52.6417 136° Southeast  Level FlightAware Approximate
Sun 06:02:00 AM -17.7937 -52.5447 136° Southeast  Level FlightAware Approximate
Sun 06:03:00 AM -17.8885 -52.4476 136° Southeast  Level FlightAware Approximate
Sun 06:04:00 AM -17.9832 -52.3504 136° Southeast  Level FlightAware Approximate
Sun 06:05:00 AM -18.0778 -52.2531 136° Southeast  Level FlightAware Approximate
Sun 06:05:24 AM -19.0700 -50.5940 136° Southeast 520 598 39,000  Level FlightAware ADS-B
Sun 06:06:00 AM -18.1724 -52.1557 136° Southeast  Level FlightAware Approximate
Sun 06:06:04 AM -19.1370 -50.5210 134° Southeast 520 598 39,000  Level FlightAware ADS-B
Sun 06:06:32 AM -19.1850 -50.4690 134° Southeast 519 597 39,000  Level FlightAware ADS-B
Sun 06:07:12 AM -19.2500 -50.3970 134° Southeast 519 597 39,000  Level FlightAware ADS-B
Sun 06:07:53 AM -19.3180 -50.3220 134° Southeast 519 597 39,000  Level FlightAware ADS-B
Sun 06:08:32 AM -19.3830 -50.2510 134° Southeast 519 597 39,000  Level FlightAware ADS-B
Sun 06:09:12 AM -19.4500 -50.1770 134° Southeast 520 598 39,000  Level FlightAware ADS-B
Sun 06:10:05 AM -19.5390 -50.0800 134° Southeast 520 598 39,000  Level FlightAware ADS-B
Sun 06:10:46 AM -19.6070 -50.0040 134° Southeast 520 598 39,000  Level FlightAware ADS-B
Sun 06:13:00 AM -19.8332 -49.8018 140° Southeast  Level Estimated
Sun 06:13:24 AM -19.8660 -49.7220 140° Southeast 518 596 39,000  Level FlightAware ADS-B
Sun 06:14:00 AM -19.9190 -49.6630 134° Southeast 517 595 39,000  Level FlightAware ADS-B
Sun 06:14:45 AM -20.0070 -49.5670 134° Southeast 516 594 39,000  Level FlightAware ADS-B
Sun 06:15:29 AM -20.0760 -49.4910 134° Southeast 515 593 39,000  Level FlightAware ADS-B
Sun 06:16:09 AM -20.1460 -49.4140 134° Southeast 514 592 39,000  Level FlightAware ADS-B
Sun 06:16:54 AM -20.2210 -49.3310 134° Southeast 514 592 39,000  Level FlightAware ADS-B
Sun 06:17:30 AM -20.2790 -49.2680 134° Southeast 514 592 39,000  Level FlightAware ADS-B
Sun 06:18:14 AM -20.3530 -49.1860 134° Southeast 514 592 39,000  Level FlightAware ADS-B
Sun 06:18:52 AM -20.4130 -49.1190 134° Southeast 513 590 39,000  Level FlightAware ADS-B
Sun 06:19:32 AM -20.4810 -49.0440 134° Southeast 513 590 39,000  Level FlightAware ADS-B
Sun 06:21:03 AM -20.6230 -48.8860 134° Southeast 512 589 39,000  Level FlightAware ADS-B
Sun 06:21:40 AM -20.6900 -48.8120 134° Southeast 512 589 39,000  Level FlightAware ADS-B
Sun 06:22:20 AM -20.7560 -48.7380 134° Southeast 512 589 39,000  Level FlightAware ADS-B
Sun 06:22:57 AM -20.8180 -48.6680 133° Southeast 512 589 39,000  Level FlightAware ADS-B
Sun 06:23:38 AM -20.8830 -48.5960 134° Southeast 511 588 39,000  Level FlightAware ADS-B
Sun 06:24:18 AM -20.9490 -48.5220 134° Southeast 512 589 39,000  Level FlightAware ADS-B
Sun 06:24:55 AM -21.0080 -48.4550 133° Southeast 510 587 39,000  Level FlightAware ADS-B
Sun 06:25:36 AM -21.0760 -48.3780 133° Southeast 510 587 39,000  Level FlightAware ADS-B
Sun 06:26:20 AM -21.1470 -48.2980 134° Southeast 510 587 39,000  Level FlightAware ADS-B
Sun 06:27:00 AM -21.2090 -48.2290 134° Southeast 508 585 39,000  Level FlightAware ADS-B
Sun 06:27:44 AM -21.2830 -48.1440 133° Southeast 507 583 39,000  Level FlightAware ADS-B
Sun 06:28:26 AM -21.3510 -48.0670 133° Southeast 506 582 39,000  Level FlightAware ADS-B
Sun 06:29:07 AM -21.4140 -47.9960 134° Southeast 506 582 39,000  Level FlightAware ADS-B
Sun 06:29:50 AM -21.4850 -47.9160 134° Southeast 506 582 39,000  Level FlightAware ADS-B
Sun 06:30:27 AM -21.5440 -47.8480 133° Southeast 505 581 39,000 -250 Level FlightAware ADS-B
Sun 06:31:02 AM -21.6020 -47.7830 134° Southeast 497 572 38,700 -1,229 Descending FlightAware ADS-B
Sun 06:31:50 AM -21.6770 -47.6980 134° Southeast 500 575 37,300 -1,977 Descending FlightAware ADS-B
Sun 06:32:30 AM -21.7410 -47.6250 133° Southeast 507 583 35,800 -1,725 Descending FlightAware ADS-B
Sun 06:33:10 AM -21.8060 -47.5500 133° Southeast 515 593 35,000 -565 Descending FlightAware ADS-B
Sun 06:33:55 AM -21.8790 -47.4660 133° Southeast 514 592 35,000  Level FlightAware ADS-B
Sun 06:34:34 AM -21.9410 -47.3940 133° Southeast 514 592 35,000  Level FlightAware ADS-B
Sun 06:35:15 AM -22.0170 -47.3280 141° Southeast 501 577 35,000  Level FlightAware ADS-B
Sun 06:35:51 AM -22.0910 -47.2840 151° Southeast 497 572 35,000 -975 Level FlightAware ADS-B
Sun 06:36:35 AM -22.1810 -47.2340 153° Southeast 499 574 33,700 -2,222 Descending FlightAware ADS-B
Sun 06:37:12 AM -22.2580 -47.1920 153° Southeast 499 574 32,000 -2,219 Descending FlightAware ADS-B
Sun 06:37:48 AM -22.3280 -47.1530 153° Southeast 487 560 31,000 -1,926 Descending FlightAware ADS-B
Sun 06:38:33 AM -22.4200 -47.1010 152° Southeast 479 551 29,400 -1,835 Descending FlightAware ADS-B
Sun 06:39:13 AM -22.4960 -47.0580 152° Southeast 471 542 28,400 -1,875 Descending FlightAware ADS-B
Sun 06:39:53 AM -22.5730 -47.0150 153° Southeast 461 531 26,900 -2,538 Descending FlightAware ADS-B
Sun 06:40:31 AM -22.6470 -46.9730 152° Southeast 459 528 25,100 -2,850 Descending FlightAware ADS-B
Sun 06:41:13 AM -22.7240 -46.9280 152° Southeast 449 517 23,100 -2,780 Descending FlightAware ADS-B
Sun 06:41:53 AM -22.7960 -46.8870 152° Southeast 435 501 21,300 -2,850 Descending FlightAware ADS-B
Sun 06:42:33 AM -22.8620 -46.8500 153° Southeast 433 498 19,300 -3,150 Descending FlightAware ADS-B
Sun 06:43:13 AM -22.9360 -46.8010 149° Southeast 432 497 17,100 -3,075 Descending FlightAware ADS-B
Sun 06:43:53 AM -23.0030 -46.7590 150° Southeast 409 471 15,200 -3,247 Descending FlightAware ADS-B
Sun 06:44:38 AM -23.0750 -46.7160 151° Southeast 387 445 12,500 -2,894 Descending FlightAware ADS-B
Sun 06:45:18 AM -23.1230 -46.6640 135° Southeast 353 406 11,100 -2,400 Descending FlightAware ADS-B
Sun 06:45:48 AM -23.1550 -46.6230 130° Southeast 341 392 9,700 -2,700 Descending FlightAware ADS-B
Sun 06:45:58 AM -23.1640 -46.6120 132° Southeast 340 391 9,300 -2,571 Descending FlightAware ADS-B
Sun 06:46:23 AM -23.1910 -46.5800 133° Southeast 338 389 8,200 -2,192 Descending FlightAware ADS-B
Sun 06:46:50 AM -23.2190 -46.5480 134° Southeast 327 376 7,400 -1,714 Descending FlightAware ADS-B
Sun 06:47:05 AM -23.2320 -46.5260 123° Southeast 330 380 7,000 -1,171 Descending FlightAware ADS-B
Sun 06:47:31 AM -23.2460 -46.4890 112° Southeast 311 358 6,600 -764 Descending FlightAware ADS-B
Sun 06:48:00 AM -23.2580 -46.4460 107° East 288 331 6,300 -610 Descending FlightAware ADS-B
Sun 06:48:30 AM -23.2690 -46.4040 106° East 280 322 6,000 -536 Descending FlightAware ADS-B
Sun 06:48:56 AM -23.2790 -46.3700 108° East 277 319 5,800 -327 Descending FlightAware ADS-B
Sun 06:49:25 AM -23.2900 -46.3320 107° East 271 312 5,700 -615 Descending FlightAware ADS-B
Sun 06:49:35 AM -23.2960 -46.3190 117° Southeast 278 320 5,400 -1,161 Descending FlightAware ADS-B
Sun 06:49:56 AM -23.3150 -46.3010 139° Southeast 273 314 5,100 -261 Descending FlightAware ADS-B
Sun 06:50:21 AM -23.3450 -46.2890 160° South 245 282 5,200  Climbing FlightAware ADS-B
Sun 06:50:35 AM -23.3580 -46.2910 188° South 217 250 5,100 -150 Descending FlightAware ADS-B
Sun 06:51:01 AM -23.3810 -46.3030 206° Southwest 199 229 5,100 -400 Level FlightAware ADS-B
Sun 06:51:35 AM -23.3960 -46.3270 236° Southwest 167 192 4,700 -814 Descending FlightAware ADS-B
Sun 06:52:00 AM -23.4010 -46.3490 256° West 174 200 4,300 -878 Descending FlightAware ADS-B
Sun 06:52:16 AM -23.4050 -46.3620 251° West 179 206 4,100 -714 Descending FlightAware ADS-B
Sun 06:52:42 AM -23.4100 -46.3820 255° West 174 200 3,800 -800 Descending FlightAware ADS-B
Sun 06:53:01 AM -23.4150 -46.3980 251° West 145 167 3,500 -923 Descending FlightAware ADS-B
Sun 06:53:21 AM -23.4180 -46.4120 257° West 137 158 3,200 -667 Descending FlightAware ADS-B
Sun 06:53:37 AM -23.4210 -46.4220 252° West 135 155 3,100 -667 Descending FlightAware ADS-B
Sun 06:54:06 AM -23.4260 -46.4410 254° West 135 155 2,700 -667 Descending FlightAware ADS-B
Sun 06:54:31 AM -23.4300 -46.4560 254° West 142 163 2,500 -480 Descending FlightAware ADS-B
Sun 06:55:02 AM -23.4360 -46.4750 251° West 72 83 -4,839 Descending FlightAware ADS-B
Sun 06:55:36 AM -23.4370 -46.4820 261° West 18 21  Level FlightAware ADS-B

Login

Don't have an account? Register now (free) for customized features, flight alerts, and more!